Time;durP1;ratioP1;P1;durP2;ratioP2;P2;SDS_P1;SDS_P2;PMS_P1;PMS_P2;Temp;Humidity;BMP_temperature;BMP_pressure;BME280_temperature;BME280_humidity;BME280_pressure;Samples;Min_cycle;Max_cycle;Signal;HPM_P1;HPM_P2
2021/09/21 00:01:09;;;;;;;4.00;1.80;;;18.30;78.70;;;;;;5011592;28;20041;-77
2021/09/21 00:03:35;;;;;;;4.13;1.90;;;18.30;78.70;;;;;;5011353;28;20022;-77
2021/09/21 00:06:03;;;;;;;3.75;1.83;;;18.30;78.60;;;;;;5011879;28;20037;-77
2021/09/21 00:08:29;;;;;;;3.92;1.77;;;18.30;78.70;;;;;;5028181;28;20053;-77
2021/09/21 00:10:55;;;;;;;3.80;1.65;;;18.30;78.80;;;;;;5011042;28;20549;-78
2021/09/21 00:13:21;;;;;;;5.03;2.22;;;18.30;78.70;;;;;;5011702;28;20026;-77
2021/09/21 00:15:47;;;;;;;2.90;1.70;;;18.30;78.70;;;;;;5011594;28;20398;-77
2021/09/21 00:18:12;;;;;;;4.30;1.88;;;18.30;78.60;;;;;;5011851;28;20495;-77
2021/09/21 00:20:38;;;;;;;2.60;1.60;;;18.30;78.80;;;;;;5012433;28;20026;-77
2021/09/21 00:23:03;;;;;;;3.55;1.67;;;18.30;78.60;;;;;;5012810;28;20069;-77
2021/09/21 00:25:29;;;;;;;3.03;1.73;;;18.30;78.70;;;;;;5011063;28;20030;-77
2021/09/21 00:27:54;;;;;;;3.95;1.80;;;18.30;78.90;;;;;;5011297;28;20049;-77
2021/09/21 00:30:21;;;;;;;3.85;1.92;;;18.30;78.50;;;;;;5012855;28;20022;-77
2021/09/21 00:32:49;;;;;;;3.42;1.90;;;18.30;78.70;;;;;;5013021;28;20030;-77
2021/09/21 00:35:15;;;;;;;3.45;1.80;;;18.30;78.70;;;;;;5011659;28;20042;-77
2021/09/21 00:37:41;;;;;;;3.90;1.90;;;18.30;78.70;;;;;;5010911;28;20055;-77
2021/09/21 00:40:08;;;;;;;4.38;1.80;;;18.30;79.30;;;;;;5010988;28;20077;-77
2021/09/21 00:42:33;;;;;;;3.17;1.80;;;18.30;78.80;;;;;;5010729;28;20030;-76
2021/09/21 00:45:08;;;;;;;5.20;2.00;;;18.30;78.70;;;;;;5012294;28;20407;-76
2021/09/21 00:47:33;;;;;;;4.32;2.00;;;18.30;78.70;;;;;;5010632;28;20022;-77
2021/09/21 00:49:59;;;;;;;4.18;1.80;;;18.30;78.90;;;;;;5010864;28;20026;-76
2021/09/21 00:52:25;;;;;;;3.83;2.00;;;18.30;78.90;;;;;;5011746;28;20490;-77
2021/09/21 00:54:51;;;;;;;4.60;1.98;;;18.30;78.80;;;;;;5012708;28;20029;-76
2021/09/21 00:57:17;;;;;;;3.28;1.95;;;18.30;78.70;;;;;;5010922;28;20458;-77
2021/09/21 00:59:43;;;;;;;6.32;2.05;;;18.20;78.80;;;;;;5010850;28;20037;-77
2021/09/21 01:02:08;;;;;;;4.25;2.05;;;18.30;78.80;;;;;;5011239;28;20484;-77
2021/09/21 01:04:36;;;;;;;4.45;1.80;;;18.20;78.80;;;;;;5011496;28;20108;-76
2021/09/21 01:07:02;;;;;;;3.90;1.92;;;18.30;78.90;;;;;;5013805;28;20026;-77
2021/09/21 01:09:29;;;;;;;5.07;2.38;;;18.30;79.00;;;;;;5014848;28;20049;-76
2021/09/21 01:11:58;;;;;;;3.25;1.80;;;18.20;79.00;;;;;;5015080;28;20438;-77
2021/09/21 01:14:24;;;;;;;3.53;1.90;;;18.20;78.70;;;;;;5016780;28;20102;-77
2021/09/21 01:16:52;;;;;;;4.43;1.88;;;18.30;78.90;;;;;;5014923;28;20545;-77
2021/09/21 01:19:18;;;;;;;3.92;2.15;;;18.20;78.80;;;;;;5015021;28;20486;-76
2021/09/21 01:21:47;;;;;;;3.30;1.83;;;18.20;78.80;;;;;;5016003;28;20064;-77
2021/09/21 01:24:14;;;;;;;3.45;1.95;;;18.20;78.80;;;;;;5016224;28;20107;-77
2021/09/21 01:26:40;;;;;;;3.90;2.00;;;18.30;78.80;;;;;;5015719;28;20026;-77
2021/09/21 01:29:06;;;;;;;3.95;2.20;;;18.20;78.80;;;;;;5014549;28;20493;-77
2021/09/21 01:31:32;;;;;;;4.15;1.90;;;18.20;78.70;;;;;;5014418;28;20026;-77
2021/09/21 01:33:59;;;;;;;3.53;1.90;;;18.20;78.90;;;;;;5015899;28;20034;-77
2021/09/21 01:36:27;;;;;;;4.25;1.92;;;18.20;78.80;;;;;;5015198;28;20116;-77
2021/09/21 01:38:53;;;;;;;3.28;1.77;;;18.20;78.90;;;;;;5014667;28;20041;-77
2021/09/21 01:41:19;;;;;;;4.25;2.00;;;18.20;78.70;;;;;;5014862;28;20030;-77
2021/09/21 01:43:45;;;;;;;5.82;2.22;;;18.20;79.00;;;;;;5014736;28;20036;-77
2021/09/21 01:46:17;;;;;;;4.43;1.95;;;18.20;78.90;;;;;;5016029;28;20511;-77
2021/09/21 01:48:43;;;;;;;4.82;1.90;;;18.20;78.80;;;;;;5014898;28;20026;-77
2021/09/21 01:51:28;;;;;;;3.70;2.13;;;18.20;78.90;;;;;;5014528;28;20029;-77
2021/09/21 01:54:11;;;;;;;4.40;2.10;;;18.20;78.90;;;;;;5014765;28;20029;-76
2021/09/21 01:59:22;;;;;;;3.28;1.80;;;18.20;79.00;;;;;;4994887;28;20488;-77
2021/09/21 02:01:48;;;;;;;3.85;1.92;;;18.20;78.90;;;;;;5011128;28;20037;-77
2021/09/21 02:04:13;;;;;;;4.05;2.15;;;18.20;78.90;;;;;;5025195;28;20040;-77
2021/09/21 02:06:41;;;;;;;4.97;2.10;;;18.20;79.00;;;;;;5008440;28;20041;-77
2021/09/21 02:09:11;;;;;;;4.38;1.90;;;18.20;79.00;;;;;;5015376;28;20018;-76
2021/09/21 02:11:38;;;;;;;3.37;1.97;;;18.20;78.90;;;;;;5013863;28;20026;-77
2021/09/21 02:14:07;;;;;;;4.13;2.10;;;18.20;78.90;;;;;;5014007;28;20157;-77
2021/09/21 02:16:33;;;;;;;3.60;2.10;;;18.20;79.00;;;;;;5015671;28;20025;-77
2021/09/21 02:18:59;;;;;;;3.78;2.00;;;18.20;78.80;;;;;;5014139;28;20116;-78
2021/09/21 02:21:26;;;;;;;4.55;1.90;;;18.20;79.00;;;;;;5013852;28;20037;-77
2021/09/21 02:23:53;;;;;;;4.70;2.20;;;18.20;78.90;;;;;;5014995;28;20527;-77
2021/09/21 02:26:19;;;;;;;3.97;2.03;;;18.20;79.00;;;;;;5013718;28;20459;-77
2021/09/21 02:28:45;;;;;;;4.47;2.33;;;18.20;79.00;;;;;;5013810;28;20036;-76
2021/09/21 02:31:11;;;;;;;4.38;2.10;;;18.20;79.00;;;;;;5014056;28;20033;-77
2021/09/21 02:33:36;;;;;;;3.47;2.00;;;18.20;79.00;;;;;;5013549;28;20034;-77
2021/09/21 02:36:03;;;;;;;5.10;2.08;;;18.20;79.00;;;;;;5013789;28;20034;-77
2021/09/21 02:38:29;;;;;;;4.13;1.80;;;18.20;79.20;;;;;;5014211;28;20029;-77
2021/09/21 02:40:54;;;;;;;3.83;2.17;;;18.10;78.90;;;;;;5014586;28;20033;-77
2021/09/21 02:43:20;;;;;;;3.08;1.92;;;18.10;79.10;;;;;;5013025;28;20406;-77
2021/09/21 02:45:45;;;;;;;4.28;2.30;;;18.20;79.10;;;;;;5013848;28;20026;-77
2021/09/21 02:48:11;;;;;;;3.50;1.88;;;18.20;79.10;;;;;;5013781;28;20026;-77
2021/09/21 02:50:36;;;;;;;3.88;1.92;;;18.20;79.10;;;;;;5014618;28;20029;-77
2021/09/21 02:53:02;;;;;;;3.80;2.17;;;18.20;79.10;;;;;;5013080;28;20076;-77
2021/09/21 02:55:28;;;;;;;4.53;1.88;;;18.20;79.20;;;;;;5014381;28;20501;-77
2021/09/21 02:57:53;;;;;;;4.07;2.30;;;18.20;79.10;;;;;;5014843;28;20033;-77
2021/09/21 03:00:27;;;;;;;4.15;2.00;;;18.10;79.10;;;;;;5013231;28;20018;-77
2021/09/21 03:02:55;;;;;;;3.95;1.90;;;18.20;79.10;;;;;;5002026;28;20026;-76
2021/09/21 03:05:30;;;;;;;3.90;2.10;;;18.10;79.20;;;;;;5012768;28;20037;-76
2021/09/21 03:10:31;;;;;;;4.05;2.20;;;18.10;79.20;;;;;;5014015;28;20391;-77
2021/09/21 03:18:06;;;;;;;3.47;2.03;;;18.10;79.30;;;;;;5014629;28;20075;-76
2021/09/21 03:20:31;;;;;;;4.38;2.20;;;18.10;79.30;;;;;;5012778;28;20109;-77
2021/09/21 03:22:57;;;;;;;4.40;2.17;;;18.10;79.30;;;;;;5014076;28;20101;-76
2021/09/21 03:25:23;;;;;;;4.13;2.33;;;18.10;79.30;;;;;;5013715;28;20030;-76
2021/09/21 03:27:49;;;;;;;3.95;2.05;;;18.10;79.30;;;;;;5013116;28;20029;-76
2021/09/21 03:30:15;;;;;;;3.80;2.13;;;18.10;79.30;;;;;;5013367;28;20029;-76
2021/09/21 03:32:41;;;;;;;3.63;2.10;;;18.10;79.50;;;;;;5013998;28;20076;-76
2021/09/21 03:35:08;;;;;;;4.97;2.35;;;18.10;79.40;;;;;;5013977;28;20030;-76
2021/09/21 03:37:35;;;;;;;4.90;2.20;;;18.10;79.50;;;;;;5013671;28;20026;-76
2021/09/21 03:40:00;;;;;;;4.18;2.10;;;18.10;79.30;;;;;;5013469;28;20056;-77
2021/09/21 03:42:26;;;;;;;4.65;2.15;;;18.10;79.30;;;;;;5012097;28;20030;-76
2021/09/21 03:44:51;;;;;;;4.43;2.30;;;18.10;79.20;;;;;;5012091;28;20407;-76
2021/09/21 03:47:18;;;;;;;3.95;2.20;;;18.10;79.20;;;;;;5013594;28;20037;-76
2021/09/21 03:49:44;;;;;;;4.50;2.35;;;18.10;79.30;;;;;;5013644;28;20101;-76
2021/09/21 03:52:10;;;;;;;3.85;2.13;;;18.10;79.30;;;;;;5012346;28;20474;-76
2021/09/21 03:54:35;;;;;;;4.97;2.40;;;18.10;79.40;;;;;;5011906;28;20079;-76
2021/09/21 03:57:01;;;;;;;5.03;2.33;;;18.10;79.50;;;;;;5013555;28;20030;-76
2021/09/21 03:59:27;;;;;;;3.60;2.17;;;18.10;79.40;;;;;;5012015;28;20030;-75
2021/09/21 04:01:53;;;;;;;3.67;2.22;;;18.10;79.50;;;;;;5010345;28;20025;-77
2021/09/21 04:04:18;;;;;;;4.45;2.45;;;18.10;79.30;;;;;;5012131;28;20064;-77
2021/09/21 04:06:46;;;;;;;4.63;2.45;;;18.10;79.30;;;;;;5010067;28;20030;-76
2021/09/21 04:09:12;;;;;;;3.95;2.38;;;18.10;79.30;;;;;;5009901;28;20443;-76
2021/09/21 04:11:38;;;;;;;3.38;2.10;;;18.10;79.30;;;;;;5011438;28;20018;-76
2021/09/21 04:14:03;;;;;;;5.07;2.25;;;18.10;79.20;;;;;;5010884;28;20033;-76
2021/09/21 04:16:30;;;;;;;5.75;2.38;;;18.10;79.50;;;;;;5012899;28;20033;-77
2021/09/21 04:18:57;;;;;;;4.70;2.17;;;18.10;79.30;;;;;;5012417;28;20565;-77
2021/09/21 04:21:22;;;;;;;4.25;2.42;;;18.10;79.20;;;;;;5012812;28;20026;-76
2021/09/21 04:23:48;;;;;;;4.20;2.03;;;18.10;79.20;;;;;;5011183;28;20487;-76
2021/09/21 04:26:14;;;;;;;4.55;2.30;;;18.10;79.30;;;;;;5011213;28;20501;-79
2021/09/21 04:28:40;;;;;;;3.63;2.10;;;18.10;79.30;;;;;;5012047;28;20026;-77
2021/09/21 04:31:10;;;;;;;4.50;2.08;;;18.10;79.30;;;;;;5011416;28;20036;-77
2021/09/21 04:33:38;;;;;;;5.00;2.15;;;18.10;79.30;;;;;;5012424;28;20030;-77
2021/09/21 04:36:05;;;;;;;4.35;2.33;;;18.10;79.20;;;;;;5013086;28;20381;-77
2021/09/21 04:38:32;;;;;;;4.72;2.38;;;18.10;79.70;;;;;;5012318;28;20030;-77
2021/09/21 04:40:57;;;;;;;4.15;2.20;;;18.10;79.40;;;;;;5005726;28;20033;-77
2021/09/21 04:43:23;;;;;;;3.78;2.33;;;18.20;79.20;;;;;;5008642;28;20076;-78
2021/09/21 04:45:49;;;;;;;5.03;2.28;;;18.10;79.00;;;;;;5006777;28;20113;-77
2021/09/21 04:48:14;;;;;;;3.95;2.10;;;18.20;79.20;;;;;;5008476;28;20025;-77
2021/09/21 04:50:40;;;;;;;4.65;2.10;;;18.10;79.20;;;;;;5006190;28;20034;-77
2021/09/21 04:53:05;;;;;;;4.25;2.38;;;18.10;79.30;;;;;;5008491;28;20097;-77
2021/09/21 04:55:31;;;;;;;4.07;2.15;;;18.10;79.10;;;;;;5006894;28;20025;-79
2021/09/21 04:57:56;;;;;;;6.30;2.40;;;18.10;79.10;;;;;;5009350;28;20117;-77
2021/09/21 05:00:22;;;;;;;12.00;3.05;;;18.20;79.60;;;;;;5007501;28;20109;-78
2021/09/21 05:02:47;;;;;;;9.73;2.80;;;18.20;80.00;;;;;;5008586;28;20546;-77
2021/09/21 05:05:14;;;;;;;8.20;2.60;;;18.20;80.10;;;;;;5006808;28;20030;-77
2021/09/21 05:07:39;;;;;;;7.97;2.78;;;18.20;80.40;;;;;;5005140;28;20061;-78
2021/09/21 05:10:05;;;;;;;10.57;2.92;;;18.20;80.00;;;;;;5013033;28;20037;-77
2021/09/21 05:12:31;;;;;;;16.05;3.28;;;18.20;78.90;;;;;;5015108;28;20030;-78
2021/09/21 05:14:56;;;;;;;19.33;4.05;;;18.30;79.10;;;;;;5017494;28;20026;-77
2021/09/21 05:17:22;;;;;;;15.40;3.80;;;18.30;79.20;;;;;;5015958;28;20029;-76
2021/09/21 05:19:47;;;;;;;12.48;4.05;;;18.20;78.40;;;;;;5008010;28;20033;-76
2021/09/21 05:22:13;;;;;;;11.55;4.32;;;18.20;77.70;;;;;;5007532;28;20608;-76
2021/09/21 05:24:39;;;;;;;10.13;3.97;;;18.20;76.90;;;;;;5009624;28;20035;-75
2021/09/21 05:27:04;;;;;;;8.60;3.83;;;18.10;76.40;;;;;;5006458;28;20120;-76
2021/09/21 05:29:30;;;;;;;8.63;4.40;;;18.10;75.70;;;;;;5005676;28;20395;-77
2021/09/21 05:31:55;;;;;;;9.38;4.50;;;18.10;75.00;;;;;;5004322;28;20048;-75
2021/09/21 05:34:21;;;;;;;13.02;4.68;;;18.10;74.10;;;;;;5003951;28;20040;-77
2021/09/21 05:36:46;;;;;;;10.38;5.43;;;18.20;74.20;;;;;;5004322;28;20022;-77
2021/09/21 05:39:14;;;;;;;10.10;5.15;;;18.00;73.10;;;;;;5004084;28;20333;-76
2021/09/21 05:41:41;;;;;;;8.30;5.20;;;18.10;73.10;;;;;;5005014;28;20033;-77
2021/09/21 05:44:07;;;;;;;10.57;5.68;;;18.10;72.60;;;;;;5004225;28;20037;-77
2021/09/21 05:46:32;;;;;;;10.88;5.28;;;18.00;72.80;;;;;;5007290;28;20402;-75
2021/09/21 05:48:59;;;;;;;10.02;5.15;;;18.00;72.70;;;;;;5005946;28;20018;-76
2021/09/21 05:51:26;;;;;;;8.38;5.30;;;18.00;72.30;;;;;;5005417;28;20037;-77
2021/09/21 05:53:53;;;;;;;9.32;5.38;;;18.00;71.80;;;;;;5008282;28;20034;-77
2021/09/21 05:56:19;;;;;;;8.35;5.30;;;18.00;71.60;;;;;;5009356;28;20116;-75
2021/09/21 05:58:45;;;;;;;9.68;5.18;;;18.00;71.50;;;;;;5010786;28;20784;-77
2021/09/21 06:01:11;;;;;;;8.77;5.32;;;18.00;71.60;;;;;;5010649;28;20049;-77
2021/09/21 06:03:36;;;;;;;8.32;5.47;;;18.00;71.40;;;;;;5015488;28;20040;-76
2021/09/21 06:06:02;;;;;;;8.70;5.80;;;18.00;71.30;;;;;;5028967;28;20068;-77
2021/09/21 06:08:27;;;;;;;8.35;5.35;;;18.00;71.30;;;;;;5029294;28;20030;-75
2021/09/21 06:10:53;;;;;;;10.25;5.97;;;18.00;71.20;;;;;;5028496;28;20018;-77
2021/09/21 06:13:18;;;;;;;10.02;5.78;;;18.00;71.10;;;;;;5028376;28;20487;-76
2021/09/21 06:15:46;;;;;;;9.68;5.80;;;17.90;70.70;;;;;;5028103;28;20067;-75
2021/09/21 06:18:12;;;;;;;9.20;6.10;;;18.00;70.80;;;;;;5028292;28;20080;-77
2021/09/21 06:20:39;;;;;;;7.57;5.10;;;18.00;70.80;;;;;;5028030;28;20045;-75
2021/09/21 06:23:05;;;;;;;8.82;5.88;;;18.00;70.70;;;;;;5029580;28;20075;-75
2021/09/21 06:25:31;;;;;;;8.73;5.88;;;17.90;70.60;;;;;;5028442;28;20025;-76
2021/09/21 06:27:56;;;;;;;8.57;5.68;;;18.00;70.60;;;;;;5028883;28;20065;-75
2021/09/21 06:30:22;;;;;;;8.63;5.95;;;17.90;70.10;;;;;;5028419;28;20031;-76
2021/09/21 06:32:48;;;;;;;8.85;5.90;;;17.90;70.30;;;;;;5028080;28;20049;-75
2021/09/21 06:35:14;;;;;;;9.80;6.38;;;17.90;70.00;;;;;;5028277;28;20491;-76
2021/09/21 06:37:40;;;;;;;9.80;5.95;;;17.90;70.30;;;;;;5028359;28;20399;-76
2021/09/21 06:40:07;;;;;;;9.65;6.20;;;17.90;70.20;;;;;;5028464;28;20029;-76
2021/09/21 06:42:33;;;;;;;11.18;5.95;;;17.90;70.80;;;;;;5030453;28;20032;-78
2021/09/21 06:45:00;;;;;;;11.55;6.47;;;17.90;73.30;;;;;;5021214;28;20017;-77
2021/09/21 06:47:26;;;;;;;10.93;6.30;;;17.80;74.00;;;;;;5015342;28;20022;-75
2021/09/21 06:49:52;;;;;;;10.13;6.45;;;17.80;74.00;;;;;;5013562;28;20029;-76
2021/09/21 06:52:17;;;;;;;9.20;6.18;;;17.80;73.50;;;;;;5013515;28;20026;-75
2021/09/21 06:54:43;;;;;;;11.80;5.80;;;17.80;73.20;;;;;;5013197;28;20026;-76
2021/09/21 06:57:09;;;;;;;9.30;5.82;;;17.80;72.40;;;;;;5013773;28;20030;-75
2021/09/21 06:59:34;;;;;;;9.93;6.25;;;17.80;72.20;;;;;;5013756;28;20018;-76
2021/09/21 07:02:00;;;;;;;9.73;6.55;;;17.80;71.80;;;;;;5014647;28;20022;-76
2021/09/21 07:04:25;;;;;;;9.40;6.40;;;17.80;71.60;;;;;;5013855;28;20145;-75
2021/09/21 07:06:51;;;;;;;9.40;6.30;;;17.80;71.30;;;;;;5013674;28;20034;-76
2021/09/21 07:09:16;;;;;;;10.07;5.85;;;17.80;71.20;;;;;;5014881;28;20108;-75
2021/09/21 07:11:42;;;;;;;9.43;6.32;;;17.80;71.20;;;;;;5013049;28;20017;-77
2021/09/21 07:14:07;;;;;;;10.10;6.35;;;17.80;71.20;;;;;;5013267;28;20021;-76
2021/09/21 07:16:33;;;;;;;11.40;6.13;;;17.80;71.10;;;;;;5014701;28;20080;-75
2021/09/21 07:18:58;;;;;;;9.75;6.00;;;17.80;71.00;;;;;;5013646;28;20053;-75
2021/09/21 07:21:24;;;;;;;10.00;5.95;;;17.80;70.90;;;;;;5013084;28;20120;-77
2021/09/21 07:23:50;;;;;;;9.20;5.90;;;17.80;70.70;;;;;;5013452;28;20026;-75
2021/09/21 07:26:15;;;;;;;9.93;6.20;;;17.80;71.30;;;;;;5014718;28;20439;-76
2021/09/21 07:28:42;;;;;;;11.70;6.70;;;17.80;70.40;;;;;;5013037;28;20050;-75
2021/09/21 07:31:08;;;;;;;9.88;6.03;;;17.80;70.30;;;;;;5012979;28;20028;-75
2021/09/21 07:33:33;;;;;;;10.77;5.80;;;17.80;70.30;;;;;;5013038;28;20438;-76
2021/09/21 07:35:59;;;;;;;9.77;5.72;;;17.80;70.20;;;;;;5013332;28;20034;-76
2021/09/21 07:38:24;;;;;;;9.68;5.97;;;17.80;70.00;;;;;;5013835;28;20080;-77
2021/09/21 07:40:50;;;;;;;9.93;5.82;;;17.80;69.90;;;;;;5012344;28;20053;-76
2021/09/21 07:43:16;;;;;;;12.90;6.30;;;17.80;70.30;;;;;;5013957;28;20030;-75
2021/09/21 07:45:41;;;;;;;13.30;6.03;;;17.80;70.00;;;;;;5013025;28;20058;-75
2021/09/21 07:48:07;;;;;;;8.77;5.45;;;17.80;70.00;;;;;;5012740;28;20025;-75
2021/09/21 07:50:33;;;;;;;10.45;6.20;;;17.80;69.90;;;;;;5013709;28;20030;-75
2021/09/21 07:52:59;;;;;;;9.75;5.53;;;17.90;70.00;;;;;;5013128;28;20471;-75
2021/09/21 07:55:25;;;;;;;9.30;5.75;;;17.80;70.00;;;;;;5012680;28;20045;-78
2021/09/21 07:57:51;;;;;;;10.75;5.53;;;17.90;69.90;;;;;;5012648;28;20403;-76
2021/09/21 08:00:20;;;;;;;9.20;5.55;;;17.90;69.80;;;;;;5012289;28;20029;-75
2021/09/21 08:02:45;;;;;;;9.13;5.50;;;17.90;69.80;;;;;;5012721;28;20538;-76
2021/09/21 08:05:12;;;;;;;8.98;5.30;;;17.90;69.30;;;;;;5013819;28;20029;-77
2021/09/21 08:07:37;;;;;;;9.65;5.47;;;17.90;69.70;;;;;;5013826;28;20019;-76
2021/09/21 08:10:05;;;;;;;9.80;6.10;;;17.80;69.40;;;;;;5013964;28;20033;-77
2021/09/21 08:12:31;;;;;;;9.82;5.93;;;17.80;69.40;;;;;;5012661;28;20492;-76
2021/09/21 08:14:57;;;;;;;9.48;6.00;;;17.80;69.60;;;;;;5012582;28;20030;-76
2021/09/21 08:17:24;;;;;;;8.73;5.15;;;17.70;69.60;;;;;;5012309;28;20391;-76
2021/09/21 08:19:51;;;;;;;11.50;5.80;;;17.80;69.50;;;;;;5013483;28;20021;-76
2021/09/21 08:22:17;;;;;;;9.30;5.80;;;17.80;69.60;;;;;;5012144;28;20030;-75
2021/09/21 08:24:43;;;;;;;9.25;5.85;;;17.80;69.70;;;;;;5012390;28;20033;-75
2021/09/21 08:27:09;;;;;;;9.23;5.80;;;17.80;69.90;;;;;;5012535;28;20029;-75
2021/09/21 08:29:34;;;;;;;10.73;6.30;;;17.80;69.70;;;;;;5012368;28;20476;-76
2021/09/21 08:32:00;;;;;;;10.43;5.68;;;17.80;70.00;;;;;;5012034;28;20018;-78
2021/09/21 08:34:27;;;;;;;10.32;5.88;;;17.80;69.60;;;;;;5012428;28;20083;-75
2021/09/21 08:36:53;;;;;;;11.80;6.07;;;17.90;69.60;;;;;;5011567;28;20030;-75
2021/09/21 08:39:19;;;;;;;10.95;6.32;;;17.70;69.50;;;;;;5012097;28;20037;-76
2021/09/21 08:41:45;;;;;;;10.75;5.57;;;17.70;69.40;;;;;;5012247;28;20108;-76
2021/09/21 08:44:11;;;;;;;10.20;5.90;;;17.80;69.70;;;;;;5011222;28;20077;-75
2021/09/21 08:46:36;;;;;;;9.80;5.55;;;17.80;69.30;;;;;;5011312;28;20022;-75
2021/09/21 08:49:03;;;;;;;9.63;5.03;;;17.80;69.40;;;;;;5011251;28;20072;-75
2021/09/21 08:51:28;;;;;;;8.32;4.80;;;17.80;69.20;;;;;;5010764;28;20018;-77
2021/09/21 08:53:54;;;;;;;9.70;4.85;;;17.80;69.10;;;;;;5011394;28;20018;-75
2021/09/21 08:56:20;;;;;;;7.70;4.28;;;17.80;69.00;;;;;;5011243;28;20080;-75
2021/09/21 08:58:59;;;;;;;8.65;4.60;;;17.80;68.90;;;;;;5011144;28;20026;-75
2021/09/21 09:01:25;;;;;;;7.55;4.35;;;17.80;68.50;;;;;;5011065;28;20029;-75
2021/09/21 09:03:55;;;;;;;8.85;4.40;;;17.80;68.20;;;;;;5012081;28;20026;-75
2021/09/21 09:06:21;;;;;;;8.82;4.20;;;17.90;68.40;;;;;;5012113;28;20022;-75
2021/09/21 09:08:47;;;;;;;7.72;4.22;;;17.80;68.20;;;;;;5011063;28;20029;-75
2021/09/21 09:11:20;;;;;;;7.35;4.25;;;17.80;68.20;;;;;;5010706;28;20391;-77
2021/09/21 09:13:54;;;;;;;7.78;4.35;;;17.90;68.40;;;;;;5011050;28;20036;-75
2021/09/21 09:16:21;;;;;;;6.97;3.80;;;17.80;68.30;;;;;;5010746;28;20026;-75
2021/09/21 09:18:49;;;;;;;6.82;3.92;;;17.80;68.00;;;;;;5012115;28;20064;-77
2021/09/21 09:21:19;;;;;;;7.65;4.07;;;17.80;67.90;;;;;;5010623;28;20153;-76
2021/09/21 09:23:53;;;;;;;7.22;3.67;;;17.90;67.60;;;;;;5010861;28;20034;-75
2021/09/21 09:26:21;;;;;;;8.45;4.40;;;17.90;67.30;;;;;;5010753;28;20467;-77
2021/09/21 09:28:47;;;;;;;6.22;3.70;;;17.80;67.40;;;;;;5013090;28;20087;-76
2021/09/21 09:31:26;;;;;;;8.60;4.00;;;17.80;67.50;;;;;;5014989;28;20032;-75
2021/09/21 09:34:14;;;;;;;9.48;4.00;;;17.80;67.70;;;;;;5014006;28;20036;-76
2021/09/21 09:36:58;;;;;;;6.60;3.67;;;17.80;67.40;;;;;;5012681;28;20053;-75
2021/09/21 09:39:27;;;;;;;7.85;3.85;;;17.80;67.30;;;;;;5012727;28;20033;-75
2021/09/21 09:41:54;;;;;;;7.82;4.30;;;17.70;67.00;;;;;;5012584;28;20557;-75
2021/09/21 09:44:29;;;;;;;6.95;3.90;;;17.70;66.20;;;;;;5012873;28;20068;-76
2021/09/21 09:47:00;;;;;;;6.90;3.95;;;17.70;66.10;;;;;;5013129;28;20556;-75
2021/09/21 09:49:31;;;;;;;8.75;3.63;;;17.60;66.30;;;;;;5013066;28;20096;-75
2021/09/21 09:52:10;;;;;;;7.32;3.80;;;17.60;64.40;;;;;;5014034;28;20018;-75
2021/09/21 09:54:37;;;;;;;7.40;3.58;;;17.60;65.00;;;;;;5014475;28;20036;-75
2021/09/21 09:57:07;;;;;;;6.60;3.70;;;17.60;64.20;;;;;;5013066;28;20029;-76
2021/09/21 09:59:33;;;;;;;7.95;3.38;;;17.60;63.70;;;;;;5012567;28;20108;-75
2021/09/21 10:01:59;;;;;;;7.22;3.30;;;17.60;64.00;;;;;;5012617;28;20415;-75
2021/09/21 10:04:24;;;;;;;6.72;3.70;;;17.60;63.80;;;;;;5012020;28;20049;-75
2021/09/21 10:06:51;;;;;;;9.10;3.90;;;17.60;63.80;;;;;;5012855;28;20061;-75
2021/09/21 10:09:17;;;;;;;6.40;3.50;;;17.60;63.50;;;;;;5014306;28;20018;-75
2021/09/21 10:11:49;;;;;;;6.35;3.72;;;17.60;62.90;;;;;;5012024;28;20060;-75
2021/09/21 10:14:16;;;;;;;;;;;17.70;62.80;;;;;;5013219;28;20018;-75
2021/09/21 10:17:05;;;;;;;6.93;3.70;;;17.60;62.10;;;;;;5014038;28;20308;-76
2021/09/21 10:19:33;;;;;;;6.88;3.80;;;17.70;63.20;;;;;;5012615;28;20037;-77
2021/09/21 10:21:59;;;;;;;6.93;3.70;;;17.70;63.10;;;;;;5012936;28;20509;-75
2021/09/21 10:24:37;;;;;;;7.82;3.58;;;17.80;63.90;;;;;;5012994;28;20026;-78
2021/09/21 10:27:08;;;;;;;8.27;3.60;;;17.80;63.60;;;;;;5013482;28;20056;-76
2021/09/21 10:29:34;;;;;;;9.65;3.90;;;17.90;63.80;;;;;;5014574;28;20022;-76
2021/09/21 10:31:59;;;;;;;11.90;3.90;;;18.00;64.00;;;;;;4977544;28;1018126;-76
2021/09/21 10:34:25;;;;;;;7.70;3.50;;;18.00;64.50;;;;;;5019597;22;20042;-74
2021/09/21 10:36:53;;;;;;;10.45;3.30;;;18.00;65.00;;;;;;4995012;28;20030;-75
2021/09/21 10:39:21;;;;;;;8.05;3.58;;;18.00;65.30;;;;;;4994652;28;20110;-75
2021/09/21 10:41:57;;;;;;;7.75;3.20;;;18.00;65.70;;;;;;4993165;28;20034;-74
2021/09/21 10:44:24;;;;;;;9.00;3.28;;;18.10;66.00;;;;;;4993591;28;20037;-75
2021/09/21 10:46:53;;;;;;;7.80;3.30;;;18.10;66.20;;;;;;4993541;28;20121;-74
2021/09/21 10:49:41;;;;;;;7.18;3.30;;;18.10;66.50;;;;;;4993460;28;20029;-74
2021/09/21 10:52:10;;;;;;;9.05;3.17;;;18.10;66.80;;;;;;4993270;28;20027;-75
2021/09/21 10:54:52;;;;;;;6.28;3.28;;;18.10;67.00;;;;;;4994595;28;20026;-75
2021/09/21 10:57:30;;;;;;;6.75;2.90;;;18.10;67.20;;;;;;4993442;28;20510;-74
2021/09/21 10:59:58;;;;;;;5.85;2.80;;;18.10;67.60;;;;;;4994398;28;20038;-74
2021/09/21 11:02:29;;;;;;;5.80;2.80;;;18.10;67.60;;;;;;4993245;28;20038;-75
2021/09/21 11:04:55;;;;;;;6.57;2.90;;;18.10;67.90;;;;;;4994455;28;20109;-74
2021/09/21 11:07:20;;;;;;;7.70;3.08;;;18.10;68.10;;;;;;4993056;28;20121;-75
2021/09/21 11:09:55;;;;;;;7.65;2.70;;;18.10;68.40;;;;;;4992979;28;20030;-75
2021/09/21 11:12:24;;;;;;;7.70;2.85;;;18.10;68.60;;;;;;4993130;28;20033;-75
2021/09/21 11:14:52;;;;;;;5.03;2.30;;;18.10;68.60;;;;;;4993129;28;20403;-75
2021/09/21 11:17:25;;;;;;;5.88;2.60;;;18.10;68.90;;;;;;4992862;28;20026;-74
2021/09/21 11:19:53;;;;;;;5.18;2.70;;;18.10;68.90;;;;;;4993735;28;20472;-74
2021/09/21 11:22:26;;;;;;;4.97;2.50;;;18.10;69.00;;;;;;4992825;28;20077;-74
2021/09/21 11:24:51;;;;;;;6.45;2.70;;;18.10;69.10;;;;;;4992847;28;20551;-72
2021/09/21 11:27:17;;;;;;;6.60;2.65;;;18.20;69.20;;;;;;4993985;28;20122;-72
2021/09/21 11:29:43;;;;;;;4.78;2.38;;;18.10;69.40;;;;;;4993842;28;20045;-74
2021/09/21 11:32:19;;;;;;;4.60;2.20;;;18.10;69.40;;;;;;4992434;28;20023;-75
2021/09/21 11:34:57;;;;;;;5.70;2.80;;;18.10;69.60;;;;;;4992672;28;20026;-75
2021/09/21 11:37:23;;;;;;;5.25;2.47;;;18.20;69.70;;;;;;4993907;28;20049;-75
2021/09/21 11:39:49;;;;;;;5.72;2.30;;;18.20;69.50;;;;;;4992402;28;20034;-74
2021/09/21 11:42:30;;;;;;;4.70;2.20;;;18.20;69.60;;;;;;4993636;28;20031;-75
2021/09/21 11:45:01;;;;;;;4.55;2.15;;;18.20;69.70;;;;;;4992419;28;20088;-74
2021/09/21 11:47:41;;;;;;;5.35;2.50;;;18.20;69.90;;;;;;4992369;28;20546;-74
2021/09/21 11:50:10;;;;;;;5.25;2.40;;;18.10;69.90;;;;;;4991719;28;20030;-74
2021/09/21 11:52:35;;;;;;;4.55;2.28;;;18.20;70.00;;;;;;4992032;28;20026;-75
2021/09/21 11:55:01;;;;;;;4.55;2.35;;;18.20;70.00;;;;;;4992250;28;20022;-75
2021/09/21 11:57:27;;;;;;;4.05;2.00;;;18.20;70.20;;;;;;4992279;28;20032;-75
2021/09/21 11:59:54;;;;;;;4.93;2.28;;;18.20;70.10;;;;;;4991867;28;20026;-76
2021/09/21 12:02:19;;;;;;;5.88;2.65;;;18.10;70.30;;;;;;4992078;28;20026;-75
2021/09/21 12:04:46;;;;;;;4.15;2.15;;;18.20;70.30;;;;;;4992016;28;20027;-75
2021/09/21 12:07:13;;;;;;;4.43;2.28;;;18.10;70.50;;;;;;4993149;28;20098;-75
2021/09/21 12:09:38;;;;;;;3.40;2.10;;;18.20;70.40;;;;;;4992040;28;20026;-75
2021/09/21 12:12:18;;;;;;;4.25;2.30;;;18.20;70.60;;;;;;4991754;28;20492;-75
2021/09/21 12:14:55;;;;;;;5.00;2.20;;;18.20;70.50;;;;;;4993373;28;20094;-74
2021/09/21 12:17:20;;;;;;;4.88;2.40;;;18.20;70.60;;;;;;4993078;28;20030;-75
2021/09/21 12:19:46;;;;;;;5.78;2.40;;;18.20;70.30;;;;;;4992651;28;20100;-73
2021/09/21 12:22:20;;;;;;;4.75;2.20;;;18.20;70.60;;;;;;4991812;28;20022;-74
2021/09/21 12:24:45;;;;;;;5.20;2.15;;;18.20;70.70;;;;;;4993023;28;20029;-72
2021/09/21 12:27:14;;;;;;;4.55;2.25;;;18.20;70.60;;;;;;4992803;28;20030;-75
2021/09/21 12:29:40;;;;;;;3.75;2.03;;;18.20;70.20;;;;;;4991541;28;20121;-75
2021/09/21 12:32:06;;;;;;;4.88;2.10;;;18.20;70.60;;;;;;4992539;28;20101;-75
2021/09/21 12:34:33;;;;;;;4.93;2.30;;;18.30;70.40;;;;;;4991446;28;20045;-74
2021/09/21 12:37:00;;;;;;;4.50;2.20;;;18.30;70.60;;;;;;4991633;28;20082;-74
2021/09/21 12:39:30;;;;;;;3.35;2.00;;;18.30;70.50;;;;;;4992794;28;20053;-74
2021/09/21 12:42:00;;;;;;;3.67;2.10;;;18.30;70.60;;;;;;4991245;28;20470;-75
2021/09/21 12:44:26;;;;;;;3.95;2.10;;;18.30;70.40;;;;;;4992459;28;20034;-74
2021/09/21 12:46:56;;;;;;;4.38;2.05;;;18.30;70.40;;;;;;4991206;28;20033;-74
2021/09/21 12:49:23;;;;;;;4.18;2.15;;;18.20;70.30;;;;;;4992547;28;20018;-74
2021/09/21 12:51:54;;;;;;;4.20;2.15;;;18.30;70.10;;;;;;4991098;28;20023;-74
2021/09/21 12:54:20;;;;;;;3.30;1.80;;;18.30;70.50;;;;;;4992553;28;20022;-74
2021/09/21 12:56:49;;;;;;;4.43;1.90;;;18.30;70.30;;;;;;4991221;28;20073;-75